sensor_id;sensor_type;location;lat;lon;timestamp;pressure;altitude;pressure_sealevel;temperature;humidity
30081;BME280;16902;50.816;12.828;2022-07-09T00:04:30;98814.59;;;10.39;100.00
30081;BME280;16902;50.816;12.828;2022-07-09T00:09:32;98809.41;;;10.65;100.00
30081;BME280;16902;50.816;12.828;2022-07-09T00:14:34;98803.84;;;10.60;100.00
30081;BME280;16902;50.816;12.828;2022-07-09T00:19:36;98797.06;;;10.41;100.00
30081;BME280;16902;50.816;12.828;2022-07-09T00:24:38;98795.72;;;10.37;100.00
30081;BME280;16902;50.816;12.828;2022-07-09T00:29:40;98796.44;;;10.47;100.00
30081;BME280;16902;50.816;12.828;2022-07-09T00:34:41;98784.75;;;10.51;100.00
30081;BME280;16902;50.816;12.828;2022-07-09T00:39:43;98776.44;;;10.48;100.00
30081;BME280;16902;50.816;12.828;2022-07-09T00:44:45;98777.91;;;10.50;100.00
30081;BME280;16902;50.816;12.828;2022-07-09T00:49:48;98766.81;;;10.48;100.00
30081;BME280;16902;50.816;12.828;2022-07-09T00:54:50;98760.50;;;10.51;100.00
30081;BME280;16902;50.816;12.828;2022-07-09T00:59:52;98759.00;;;10.48;100.00
30081;BME280;16902;50.816;12.828;2022-07-09T01:04:54;98760.22;;;10.62;100.00
30081;BME280;16902;50.816;12.828;2022-07-09T01:09:56;98757.22;;;10.75;100.00
30081;BME280;16902;50.816;12.828;2022-07-09T01:14:58;98747.53;;;10.93;100.00
30081;BME280;16902;50.816;12.828;2022-07-09T01:19:59;98743.28;;;11.00;100.00
30081;BME280;16902;50.816;12.828;2022-07-09T01:25:05;98740.59;;;11.18;100.00
30081;BME280;16902;50.816;12.828;2022-07-09T01:30:09;98727.88;;;11.15;100.00
30081;BME280;16902;50.816;12.828;2022-07-09T01:35:11;98723.31;;;11.17;100.00
30081;BME280;16902;50.816;12.828;2022-07-09T01:40:13;98717.16;;;11.35;100.00
30081;BME280;16902;50.816;12.828;2022-07-09T01:45:16;98714.72;;;11.41;100.00
30081;BME280;16902;50.816;12.828;2022-07-09T01:50:18;98700.03;;;11.40;100.00
30081;BME280;16902;50.816;12.828;2022-07-09T01:55:19;98695.81;;;11.72;100.00
30081;BME280;16902;50.816;12.828;2022-07-09T02:00:21;98693.38;;;12.03;100.00
30081;BME280;16902;50.816;12.828;2022-07-09T02:05:24;98687.00;;;12.14;100.00
30081;BME280;16902;50.816;12.828;2022-07-09T02:10:26;98680.31;;;12.11;100.00
30081;BME280;16902;50.816;12.828;2022-07-09T02:15:28;98674.78;;;12.14;100.00
30081;BME280;16902;50.816;12.828;2022-07-09T02:20:30;98671.97;;;12.16;100.00
30081;BME280;16902;50.816;12.828;2022-07-09T02:25:32;98671.50;;;12.12;100.00
30081;BME280;16902;50.816;12.828;2022-07-09T02:30:33;98666.31;;;12.04;100.00
30081;BME280;16902;50.816;12.828;2022-07-09T02:35:38;98673.03;;;11.90;100.00
30081;BME280;16902;50.816;12.828;2022-07-09T02:40:40;98663.22;;;12.00;100.00
30081;BME280;16902;50.816;12.828;2022-07-09T02:45:42;98673.97;;;11.97;100.00
30081;BME280;16902;50.816;12.828;2022-07-09T02:50:43;98672.31;;;12.13;100.00
30081;BME280;16902;50.816;12.828;2022-07-09T02:55:45;98684.34;;;12.22;100.00
30081;BME280;16902;50.816;12.828;2022-07-09T03:00:47;98678.44;;;12.36;100.00
30081;BME280;16902;50.816;12.828;2022-07-09T03:05:48;98683.50;;;12.38;100.00
30081;BME280;16902;50.816;12.828;2022-07-09T03:10:50;98681.59;;;12.15;100.00
30081;BME280;16902;50.816;12.828;2022-07-09T03:15:52;98687.16;;;12.20;100.00
30081;BME280;16902;50.816;12.828;2022-07-09T03:20:53;98689.69;;;12.37;100.00
30081;BME280;16902;50.816;12.828;2022-07-09T03:25:55;98687.09;;;12.37;100.00
30081;BME280;16902;50.816;12.828;2022-07-09T03:30:57;98680.91;;;12.29;100.00
30081;BME280;16902;50.816;12.828;2022-07-09T03:35:59;98672.63;;;12.18;100.00
30081;BME280;16902;50.816;12.828;2022-07-09T03:41:01;98658.50;;;11.96;100.00
30081;BME280;16902;50.816;12.828;2022-07-09T03:46:02;98667.13;;;11.64;100.00
30081;BME280;16902;50.816;12.828;2022-07-09T03:51:04;98667.13;;;11.47;100.00
30081;BME280;16902;50.816;12.828;2022-07-09T03:56:06;98669.75;;;11.23;100.00
30081;BME280;16902;50.816;12.828;2022-07-09T04:01:08;98673.63;;;11.19;100.00
30081;BME280;16902;50.816;12.828;2022-07-09T04:06:09;98679.31;;;11.14;100.00
30081;BME280;16902;50.816;12.828;2022-07-09T04:11:11;98678.34;;;11.15;100.00
30081;BME280;16902;50.816;12.828;2022-07-09T04:16:13;98673.97;;;11.24;100.00
30081;BME280;16902;50.816;12.828;2022-07-09T04:21:15;98672.66;;;11.44;100.00
30081;BME280;16902;50.816;12.828;2022-07-09T04:26:18;98681.78;;;11.65;100.00
30081;BME280;16902;50.816;12.828;2022-07-09T04:31:22;98681.94;;;11.79;100.00
30081;BME280;16902;50.816;12.828;2022-07-09T04:36:24;98686.53;;;12.02;100.00
30081;BME280;16902;50.816;12.828;2022-07-09T04:41:26;98691.13;;;12.47;100.00
30081;BME280;16902;50.816;12.828;2022-07-09T04:46:27;98682.94;;;12.90;100.00
30081;BME280;16902;50.816;12.828;2022-07-09T04:51:32;98695.78;;;13.53;100.00
30081;BME280;16902;50.816;12.828;2022-07-09T04:56:34;98692.78;;;14.02;100.00
30081;BME280;16902;50.816;12.828;2022-07-09T05:01:35;98693.16;;;14.29;100.00
30081;BME280;16902;50.816;12.828;2022-07-09T05:06:38;98687.72;;;14.45;100.00
30081;BME280;16902;50.816;12.828;2022-07-09T05:11:40;98689.66;;;14.36;100.00
30081;BME280;16902;50.816;12.828;2022-07-09T05:16:42;98684.41;;;14.36;100.00
30081;BME280;16902;50.816;12.828;2022-07-09T05:21:46;98682.06;;;14.56;100.00
30081;BME280;16902;50.816;12.828;2022-07-09T05:26:48;98683.31;;;14.75;100.00
30081;BME280;16902;50.816;12.828;2022-07-09T05:31:50;98688.44;;;14.83;100.00
30081;BME280;16902;50.816;12.828;2022-07-09T05:36:52;98692.44;;;15.15;100.00
30081;BME280;16902;50.816;12.828;2022-07-09T05:41:53;98696.06;;;15.36;100.00
30081;BME280;16902;50.816;12.828;2022-07-09T05:46:55;98694.50;;;15.84;100.00
30081;BME280;16902;50.816;12.828;2022-07-09T05:51:57;98691.91;;;16.19;100.00
30081;BME280;16902;50.816;12.828;2022-07-09T05:56:58;98688.41;;;16.81;100.00
30081;BME280;16902;50.816;12.828;2022-07-09T06:02:00;98683.63;;;16.98;100.00
30081;BME280;16902;50.816;12.828;2022-07-09T06:07:04;98687.63;;;16.87;100.00
30081;BME280;16902;50.816;12.828;2022-07-09T06:12:07;98690.13;;;17.02;100.00
30081;BME280;16902;50.816;12.828;2022-07-09T06:17:09;98688.47;;;17.01;100.00
30081;BME280;16902;50.816;12.828;2022-07-09T06:22:11;98684.69;;;17.24;100.00
30081;BME280;16902;50.816;12.828;2022-07-09T06:27:12;98677.84;;;17.42;100.00
30081;BME280;16902;50.816;12.828;2022-07-09T06:32:14;98680.69;;;17.54;100.00
30081;BME280;16902;50.816;12.828;2022-07-09T06:37:16;98674.41;;;17.55;100.00
30081;BME280;16902;50.816;12.828;2022-07-09T06:42:17;98680.69;;;17.61;100.00
30081;BME280;16902;50.816;12.828;2022-07-09T06:47:29;98689.19;;;17.69;100.00
30081;BME280;16902;50.816;12.828;2022-07-09T06:52:31;98690.84;;;17.77;100.00
30081;BME280;16902;50.816;12.828;2022-07-09T06:57:33;98684.78;;;17.90;100.00
30081;BME280;16902;50.816;12.828;2022-07-09T07:02:35;98686.97;;;18.06;100.00
30081;BME280;16902;50.816;12.828;2022-07-09T07:07:37;98687.81;;;17.73;100.00
30081;BME280;16902;50.816;12.828;2022-07-09T07:12:39;98679.50;;;17.70;100.00
30081;BME280;16902;50.816;12.828;2022-07-09T07:17:41;98683.09;;;17.69;100.00
30081;BME280;16902;50.816;12.828;2022-07-09T07:22:44;98681.34;;;17.89;100.00
30081;BME280;16902;50.816;12.828;2022-07-09T07:27:46;98679.50;;;17.90;100.00
30081;BME280;16902;50.816;12.828;2022-07-09T07:32:48;98676.66;;;17.91;100.00
30081;BME280;16902;50.816;12.828;2022-07-09T07:37:50;98677.44;;;18.12;100.00
30081;BME280;16902;50.816;12.828;2022-07-09T07:42:51;98671.31;;;18.38;100.00
30081;BME280;16902;50.816;12.828;2022-07-09T07:47:53;98666.78;;;18.58;100.00
30081;BME280;16902;50.816;12.828;2022-07-09T07:52:55;98659.72;;;18.97;100.00
30081;BME280;16902;50.816;12.828;2022-07-09T07:57:58;98653.44;;;18.98;100.00
30081;BME280;16902;50.816;12.828;2022-07-09T08:02:59;98661.69;;;19.08;100.00
30081;BME280;16902;50.816;12.828;2022-07-09T08:08:01;98652.75;;;18.71;100.00
30081;BME280;16902;50.816;12.828;2022-07-09T08:13:03;98644.31;;;19.82;100.00
30081;BME280;16902;50.816;12.828;2022-07-09T08:18:05;98650.00;;;20.04;100.00
30081;BME280;16902;50.816;12.828;2022-07-09T08:23:08;98652.16;;;20.32;100.00
30081;BME280;16902;50.816;12.828;2022-07-09T08:28:10;98648.47;;;20.33;100.00
30081;BME280;16902;50.816;12.828;2022-07-09T08:33:11;98643.63;;;19.68;100.00
30081;BME280;16902;50.816;12.828;2022-07-09T08:38:14;98653.94;;;19.13;100.00
30081;BME280;16902;50.816;12.828;2022-07-09T08:43:16;98645.09;;;19.01;100.00
30081;BME280;16902;50.816;12.828;2022-07-09T08:48:19;98649.47;;;18.75;100.00
30081;BME280;16902;50.816;12.828;2022-07-09T08:53:21;98650.03;;;18.26;100.00
30081;BME280;16902;50.816;12.828;2022-07-09T08:58:23;98637.56;;;18.60;100.00
30081;BME280;16902;50.816;12.828;2022-07-09T09:03:26;98637.72;;;19.10;100.00
30081;BME280;16902;50.816;12.828;2022-07-09T09:08:33;98628.75;;;19.42;100.00
30081;BME280;16902;50.816;12.828;2022-07-09T09:13:43;98622.75;;;20.03;100.00
30081;BME280;16902;50.816;12.828;2022-07-09T09:18:48;98627.59;;;20.25;100.00
30081;BME280;16902;50.816;12.828;2022-07-09T09:23:56;98629.25;;;20.26;100.00
30081;BME280;16902;50.816;12.828;2022-07-09T09:29:02;98613.47;;;20.98;100.00
30081;BME280;16902;50.816;12.828;2022-07-09T09:34:15;98605.91;;;20.71;100.00
30081;BME280;16902;50.816;12.828;2022-07-09T09:44:35;98601.31;;;20.48;100.00
30081;BME280;16902;50.816;12.828;2022-07-09T09:49:41;98603.63;;;19.33;100.00
30081;BME280;16902;50.816;12.828;2022-07-09T09:54:54;98601.47;;;18.54;100.00
30081;BME280;16902;50.816;12.828;2022-07-09T10:00:10;98594.59;;;17.81;100.00
30081;BME280;16902;50.816;12.828;2022-07-09T10:05:13;98602.31;;;17.36;100.00
30081;BME280;16902;50.816;12.828;2022-07-09T10:10:20;98605.47;;;16.92;100.00
30081;BME280;16902;50.816;12.828;2022-07-09T10:15:23;98609.63;;;16.60;100.00
30081;BME280;16902;50.816;12.828;2022-07-09T10:20:33;98614.59;;;16.00;100.00
30081;BME280;16902;50.816;12.828;2022-07-09T10:25:44;98600.13;;;15.55;100.00
30081;BME280;16902;50.816;12.828;2022-07-09T10:30:48;98621.91;;;15.27;100.00
30081;BME280;16902;50.816;12.828;2022-07-09T10:35:52;98617.38;;;15.14;100.00
30081;BME280;16902;50.816;12.828;2022-07-09T10:40:58;98614.91;;;15.34;100.00
30081;BME280;16902;50.816;12.828;2022-07-09T10:46:09;98606.28;;;15.40;100.00
30081;BME280;16902;50.816;12.828;2022-07-09T10:51:19;98612.09;;;15.36;100.00
30081;BME280;16902;50.816;12.828;2022-07-09T10:56:22;98606.25;;;15.34;100.00
30081;BME280;16902;50.816;12.828;2022-07-09T11:01:24;98605.59;;;15.53;100.00
30081;BME280;16902;50.816;12.828;2022-07-09T11:06:27;98606.94;;;15.71;100.00
30081;BME280;16902;50.816;12.828;2022-07-09T11:11:30;98598.13;;;15.78;100.00
30081;BME280;16902;50.816;12.828;2022-07-09T11:16:32;98600.97;;;15.83;100.00
30081;BME280;16902;50.816;12.828;2022-07-09T11:21:34;98604.56;;;16.10;100.00
30081;BME280;16902;50.816;12.828;2022-07-09T11:26:36;98595.00;;;15.96;100.00
30081;BME280;16902;50.816;12.828;2022-07-09T11:31:49;98597.91;;;16.14;100.00
30081;BME280;16902;50.816;12.828;2022-07-09T11:36:55;98581.63;;;16.32;100.00
30081;BME280;16902;50.816;12.828;2022-07-09T11:41:59;98560.03;;;16.43;100.00
30081;BME280;16902;50.816;12.828;2022-07-09T11:47:12;98574.97;;;15.95;100.00
30081;BME280;16902;50.816;12.828;2022-07-09T11:52:24;98579.06;;;16.04;100.00
30081;BME280;16902;50.816;12.828;2022-07-09T11:57:27;98574.53;;;16.87;100.00
30081;BME280;16902;50.816;12.828;2022-07-09T12:02:32;98584.13;;;18.33;100.00
30081;BME280;16902;50.816;12.828;2022-07-09T12:07:34;98573.84;;;18.56;100.00
30081;BME280;16902;50.816;12.828;2022-07-09T12:12:37;98581.84;;;18.43;100.00
30081;BME280;16902;50.816;12.828;2022-07-09T12:17:39;98568.13;;;18.66;100.00
30081;BME280;16902;50.816;12.828;2022-07-09T12:22:41;98557.38;;;18.29;100.00
30081;BME280;16902;50.816;12.828;2022-07-09T12:27:43;98561.09;;;18.08;100.00
30081;BME280;16902;50.816;12.828;2022-07-09T12:32:46;98556.03;;;18.52;100.00
30081;BME280;16902;50.816;12.828;2022-07-09T12:37:48;98545.84;;;18.62;100.00
30081;BME280;16902;50.816;12.828;2022-07-09T12:42:50;98532.22;;;18.27;100.00
30081;BME280;16902;50.816;12.828;2022-07-09T12:47:52;98531.06;;;18.16;100.00
30081;BME280;16902;50.816;12.828;2022-07-09T12:52:54;98524.44;;;18.45;100.00
30081;BME280;16902;50.816;12.828;2022-07-09T12:57:56;98512.56;;;18.22;100.00
30081;BME280;16902;50.816;12.828;2022-07-09T13:02:58;98499.94;;;18.38;100.00
30081;BME280;16902;50.816;12.828;2022-07-09T13:08:00;98504.78;;;18.41;100.00
30081;BME280;16902;50.816;12.828;2022-07-09T13:13:02;98494.78;;;18.49;100.00
30081;BME280;16902;50.816;12.828;2022-07-09T13:18:04;98505.47;;;18.61;100.00
30081;BME280;16902;50.816;12.828;2022-07-09T13:23:06;98499.31;;;19.49;100.00
30081;BME280;16902;50.816;12.828;2022-07-09T13:28:07;98483.53;;;20.46;100.00
30081;BME280;16902;50.816;12.828;2022-07-09T13:33:09;98490.06;;;21.91;100.00
30081;BME280;16902;50.816;12.828;2022-07-09T13:38:11;98478.69;;;20.85;100.00
30081;BME280;16902;50.816;12.828;2022-07-09T13:43:21;98468.47;;;21.23;100.00
30081;BME280;16902;50.816;12.828;2022-07-09T13:48:37;98463.38;;;21.69;100.00
30081;BME280;16902;50.816;12.828;2022-07-09T13:53:39;98455.69;;;20.43;100.00
30081;BME280;16902;50.816;12.828;2022-07-09T13:58:41;98449.41;;;19.96;100.00
30081;BME280;16902;50.816;12.828;2022-07-09T14:03:43;98446.56;;;19.79;100.00
30081;BME280;16902;50.816;12.828;2022-07-09T14:08:45;98429.31;;;19.76;100.00
30081;BME280;16902;50.816;12.828;2022-07-09T14:13:47;98424.88;;;20.07;100.00
30081;BME280;16902;50.816;12.828;2022-07-09T14:18:51;98412.25;;;19.61;100.00
30081;BME280;16902;50.816;12.828;2022-07-09T14:23:53;98411.28;;;19.73;100.00
30081;BME280;16902;50.816;12.828;2022-07-09T14:28:55;98398.31;;;20.02;100.00
30081;BME280;16902;50.816;12.828;2022-07-09T14:33:57;98403.22;;;19.98;100.00
30081;BME280;16902;50.816;12.828;2022-07-09T14:38:59;98408.25;;;19.33;100.00
30081;BME280;16902;50.816;12.828;2022-07-09T14:44:03;98406.72;;;21.58;100.00
30081;BME280;16902;50.816;12.828;2022-07-09T14:49:05;98399.72;;;25.79;100.00
30081;BME280;16902;50.816;12.828;2022-07-09T14:54:07;98386.91;;;22.18;100.00
30081;BME280;16902;50.816;12.828;2022-07-09T14:59:09;98446.34;;;20.71;100.00
30081;BME280;16902;50.816;12.828;2022-07-09T15:04:13;98479.84;;;16.94;100.00
30081;BME280;16902;50.816;12.828;2022-07-09T15:09:14;98445.34;;;15.27;100.00
30081;BME280;16902;50.816;12.828;2022-07-09T15:14:16;98418.16;;;14.78;100.00
30081;BME280;16902;50.816;12.828;2022-07-09T15:19:18;98414.47;;;14.94;100.00
30081;BME280;16902;50.816;12.828;2022-07-09T15:24:20;98400.38;;;15.36;100.00
30081;BME280;16902;50.816;12.828;2022-07-09T15:29:22;98389.19;;;16.37;100.00
30081;BME280;16902;50.816;12.828;2022-07-09T15:34:24;98390.97;;;17.23;100.00
30081;BME280;16902;50.816;12.828;2022-07-09T15:39:26;98387.16;;;17.05;100.00
30081;BME280;16902;50.816;12.828;2022-07-09T15:44:28;98382.44;;;17.34;100.00
30081;BME280;16902;50.816;12.828;2022-07-09T15:49:30;98365.34;;;16.85;100.00
30081;BME280;16902;50.816;12.828;2022-07-09T15:54:34;98362.88;;;16.96;100.00
30081;BME280;16902;50.816;12.828;2022-07-09T15:59:36;98357.47;;;16.45;100.00
30081;BME280;16902;50.816;12.828;2022-07-09T16:04:38;98340.28;;;16.16;100.00
30081;BME280;16902;50.816;12.828;2022-07-09T16:09:40;98338.44;;;16.43;100.00
30081;BME280;16902;50.816;12.828;2022-07-09T16:14:42;98326.53;;;17.83;100.00
30081;BME280;16902;50.816;12.828;2022-07-09T16:19:44;98318.59;;;17.90;100.00
30081;BME280;16902;50.816;12.828;2022-07-09T16:24:45;98322.91;;;17.33;100.00
30081;BME280;16902;50.816;12.828;2022-07-09T16:29:47;98320.78;;;17.03;100.00
30081;BME280;16902;50.816;12.828;2022-07-09T16:34:49;98318.22;;;16.43;100.00
30081;BME280;16902;50.816;12.828;2022-07-09T16:39:51;98314.59;;;16.31;100.00
30081;BME280;16902;50.816;12.828;2022-07-09T16:44:53;98318.22;;;16.43;100.00
30081;BME280;16902;50.816;12.828;2022-07-09T16:49:55;98314.81;;;16.50;100.00
30081;BME280;16902;50.816;12.828;2022-07-09T16:55:07;98303.06;;;16.45;100.00
30081;BME280;16902;50.816;12.828;2022-07-09T17:00:09;98302.28;;;16.32;100.00
30081;BME280;16902;50.816;12.828;2022-07-09T17:05:14;98287.31;;;16.19;100.00
30081;BME280;16902;50.816;12.828;2022-07-09T17:10:16;98283.28;;;16.16;100.00
30081;BME280;16902;50.816;12.828;2022-07-09T17:15:18;98284.06;;;16.24;100.00
30081;BME280;16902;50.816;12.828;2022-07-09T17:20:20;98268.13;;;16.32;100.00
30081;BME280;16902;50.816;12.828;2022-07-09T17:25:22;98265.69;;;16.37;100.00
30081;BME280;16902;50.816;12.828;2022-07-09T17:30:24;98249.69;;;16.38;100.00
30081;BME280;16902;50.816;12.828;2022-07-09T17:35:26;98256.16;;;16.42;100.00
30081;BME280;16902;50.816;12.828;2022-07-09T17:40:28;98252.16;;;16.40;100.00
30081;BME280;16902;50.816;12.828;2022-07-09T17:45:31;98252.75;;;16.29;100.00
30081;BME280;16902;50.816;12.828;2022-07-09T17:50:33;98255.41;;;16.22;100.00
30081;BME280;16902;50.816;12.828;2022-07-09T17:55:35;98246.91;;;16.13;100.00
30081;BME280;16902;50.816;12.828;2022-07-09T18:00:38;98243.88;;;16.03;100.00
30081;BME280;16902;50.816;12.828;2022-07-09T18:05:40;98248.53;;;15.94;100.00
30081;BME280;16902;50.816;12.828;2022-07-09T18:10:43;98271.47;;;15.59;100.00
30081;BME280;16902;50.816;12.828;2022-07-09T18:15:45;98287.16;;;15.33;100.00
30081;BME280;16902;50.816;12.828;2022-07-09T18:20:47;98271.91;;;15.02;100.00
30081;BME280;16902;50.816;12.828;2022-07-09T18:25:50;98275.69;;;14.93;100.00
30081;BME280;16902;50.816;12.828;2022-07-09T18:30:54;98272.00;;;14.80;100.00
30081;BME280;16902;50.816;12.828;2022-07-09T18:35:56;98286.63;;;14.61;100.00
30081;BME280;16902;50.816;12.828;2022-07-09T18:41:05;98290.50;;;14.44;100.00
30081;BME280;16902;50.816;12.828;2022-07-09T18:46:11;98287.72;;;14.46;100.00
30081;BME280;16902;50.816;12.828;2022-07-09T18:51:13;98285.78;;;14.33;100.00
30081;BME280;16902;50.816;12.828;2022-07-09T18:56:15;98291.03;;;14.33;100.00
30081;BME280;16902;50.816;12.828;2022-07-09T19:01:17;98293.78;;;14.25;100.00
30081;BME280;16902;50.816;12.828;2022-07-09T19:06:19;98296.34;;;14.18;100.00
30081;BME280;16902;50.816;12.828;2022-07-09T19:11:21;98308.41;;;14.12;100.00
30081;BME280;16902;50.816;12.828;2022-07-09T19:16:23;98296.03;;;14.06;100.00
30081;BME280;16902;50.816;12.828;2022-07-09T19:21:27;98292.00;;;14.04;100.00
30081;BME280;16902;50.816;12.828;2022-07-09T19:26:29;98293.94;;;13.95;100.00
30081;BME280;16902;50.816;12.828;2022-07-09T19:31:30;98298.56;;;13.93;100.00
30081;BME280;16902;50.816;12.828;2022-07-09T19:36:51;98291.88;;;13.91;100.00
30081;BME280;16902;50.816;12.828;2022-07-09T19:41:53;98303.97;;;13.92;100.00
30081;BME280;16902;50.816;12.828;2022-07-09T19:46:55;98300.28;;;13.86;100.00
30081;BME280;16902;50.816;12.828;2022-07-09T19:51:58;98307.44;;;13.77;100.00
30081;BME280;16902;50.816;12.828;2022-07-09T19:57:00;98307.59;;;13.69;100.00
30081;BME280;16902;50.816;12.828;2022-07-09T20:02:02;98306.94;;;13.67;100.00
30081;BME280;16902;50.816;12.828;2022-07-09T20:07:04;98310.50;;;13.59;100.00
30081;BME280;16902;50.816;12.828;2022-07-09T20:12:07;98314.97;;;13.44;100.00
30081;BME280;16902;50.816;12.828;2022-07-09T20:17:09;98303.09;;;13.27;100.00
30081;BME280;16902;50.816;12.828;2022-07-09T20:22:11;98303.63;;;13.07;100.00
30081;BME280;16902;50.816;12.828;2022-07-09T20:27:13;98298.41;;;12.93;100.00
30081;BME280;16902;50.816;12.828;2022-07-09T20:32:15;98306.28;;;12.78;100.00
30081;BME280;16902;50.816;12.828;2022-07-09T20:37:17;98310.16;;;12.82;100.00
30081;BME280;16902;50.816;12.828;2022-07-09T20:42:18;98310.16;;;12.82;100.00
30081;BME280;16902;50.816;12.828;2022-07-09T20:47:20;98307.34;;;12.69;100.00
30081;BME280;16902;50.816;12.828;2022-07-09T20:52:22;98308.16;;;12.69;100.00
30081;BME280;16902;50.816;12.828;2022-07-09T20:57:24;98310.16;;;12.82;100.00
30081;BME280;16902;50.816;12.828;2022-07-09T21:02:26;98311.56;;;12.84;100.00
30081;BME280;16902;50.816;12.828;2022-07-09T21:07:28;98309.34;;;12.81;100.00
30081;BME280;16902;50.816;12.828;2022-07-09T21:12:30;98306.81;;;12.88;100.00
30081;BME280;16902;50.816;12.828;2022-07-09T21:17:32;98310.69;;;12.77;100.00
30081;BME280;16902;50.816;12.828;2022-07-09T21:22:52;98309.22;;;12.60;100.00
30081;BME280;16902;50.816;12.828;2022-07-09T21:27:54;98301.03;;;12.63;100.00
30081;BME280;16902;50.816;12.828;2022-07-09T21:32:56;98307.97;;;12.85;100.00
30081;BME280;16902;50.816;12.828;2022-07-09T21:37:59;98311.75;;;12.83;100.00
30081;BME280;16902;50.816;12.828;2022-07-09T21:43:01;98317.72;;;12.92;100.00
30081;BME280;16902;50.816;12.828;2022-07-09T21:48:03;98324.28;;;13.02;100.00
30081;BME280;16902;50.816;12.828;2022-07-09T21:53:04;98332.47;;;13.14;100.00
30081;BME280;16902;50.816;12.828;2022-07-09T21:58:06;98331.59;;;13.22;100.00
30081;BME280;16902;50.816;12.828;2022-07-09T22:03:08;98339.75;;;13.19;100.00
30081;BME280;16902;50.816;12.828;2022-07-09T22:08:10;98336.28;;;13.11;100.00
30081;BME280;16902;50.816;12.828;2022-07-09T22:13:13;98334.81;;;12.94;100.00
30081;BME280;16902;50.816;12.828;2022-07-09T22:18:15;98323.63;;;12.85;100.00
30081;BME280;16902;50.816;12.828;2022-07-09T22:23:17;98333.56;;;12.75;100.00
30081;BME280;16902;50.816;12.828;2022-07-09T22:28:18;98338.69;;;12.69;100.00
30081;BME280;16902;50.816;12.828;2022-07-09T22:33:20;98332.00;;;12.51;100.00
30081;BME280;16902;50.816;12.828;2022-07-09T22:38:22;98330.69;;;12.32;100.00
30081;BME280;16902;50.816;12.828;2022-07-09T22:43:24;98338.25;;;12.27;100.00
30081;BME280;16902;50.816;12.828;2022-07-09T22:48:26;98347.63;;;12.37;100.00
30081;BME280;16902;50.816;12.828;2022-07-09T22:53:28;98347.91;;;12.42;100.00
30081;BME280;16902;50.816;12.828;2022-07-09T22:58:29;98359.63;;;12.46;100.00
30081;BME280;16902;50.816;12.828;2022-07-09T23:03:31;98353.41;;;12.47;100.00
30081;BME280;16902;50.816;12.828;2022-07-09T23:08:33;98358.00;;;12.45;100.00
30081;BME280;16902;50.816;12.828;2022-07-09T23:13:54;98360.63;;;12.45;100.00
30081;BME280;16902;50.816;12.828;2022-07-09T23:19:08;98363.41;;;12.43;100.00
30081;BME280;16902;50.816;12.828;2022-07-09T23:24:10;98345.81;;;12.37;100.00
30081;BME280;16902;50.816;12.828;2022-07-09T23:29:12;98351.94;;;12.29;100.00
30081;BME280;16902;50.816;12.828;2022-07-09T23:34:14;98343.19;;;12.22;100.00
30081;BME280;16902;50.816;12.828;2022-07-09T23:39:15;98344.50;;;12.18;100.00
30081;BME280;16902;50.816;12.828;2022-07-09T23:44:17;98343.69;;;12.18;100.00
30081;BME280;16902;50.816;12.828;2022-07-09T23:49:19;98333.50;;;12.08;100.00
30081;BME280;16902;50.816;12.828;2022-07-09T23:54:22;98336.09;;;12.08;100.00
30081;BME280;16902;50.816;12.828;2022-07-09T23:59:24;98336.34;;;11.98;100.00
